To NAV CANADA Home Page Login to a new session Search on AWWS site Disclaimer Vers la page française équivalente Tips FAQ What's new on the site To the Forecasts and Observations / NOTAM section To "File a Flight Plan" website Publications and other links Update of the User's profile FIC Telephone Numbers My Weather Data Folder Route Weather Data Regional Weather Data Local Weather Data To the Forecasts and Observations / NOTAM section
Request Generated 06/25/2022 at 13:04:29 UTC . Weather information available at that time is displayed.

METAR/TAF

VICTORIA INTL/BC    

METAR CYYJ 251300Z 27004KT 30SM FEW250 14/09 A3020 RMK CI1 CI TR SLP230=
METAR CYYJ 251200Z 27005KT 30SM FEW200 13/08 A3019 RMK CC1 CC TR SLP226=
METAR CYYJ 251100Z 27006KT 30SM FEW035 12/10 A3019 RMK SC1 SC TR SLP225=

TAF CYYJ 251140Z 2512/2612 27005KT P6SM FEW040
FM251800 01008KT P6SM SKC
BECMG 2605/2607 28005KT
BECMG 2610/2612 32005KT
RMK NXT FCST BY 251800Z
Your time UTC time
Weather data provided by Environment Canada and NAV CANADA